Fort Worth Nas Jrb,Carswell field Fort Worth US
ICAO: KNFW
IATA: NFW
Category: Medium
Scheduled Services: No

Elevation: 650 ft
TransAlt. 18000 ft.

Airport Communications:
RGNL APP/DEP:125.8
NAVY FORT WORTH ARR:128.775
ATIS:27.357
NAVY FORT WORTH GND:126.4
LOCKHEED:28.41
BASE OPS:29.177
PMSV METRO:34.255
NAVY FORT WORTH TWR:120.95

KNFW Zoom In..

Runways:

(A) RW 17 length 12000 ft width 200 ft
ILS 108.70 / hdg 174

(B) RW 35 length 12000 ft width 200 ft
ILS 109.30 / hdg 354

Location; KNFW
Day. 14 / Time. 13.52 Zulu
* Altimeter: 29.99
* Temperature: 24° c. 75.2°f.
* Wind from: 100° Speed 04 kn.
Dewpoint: 22° c.
Visibility: 7 Statute Miles.
Clouds: Few 1800 ft.
Clouds: Scattered 3300 ft.
Clouds: Overcast 8000 ft.
Conditions: Light Rain.

KNFW 141352Z 10004KT 7SM -RA FEW018 SCT033 OVC080 24/22 A2999 RMK AO2 RAB05 SLP139 P0006 T02440222 $


Wind From 100°
Speed 04 kn.

 
 
jpsmedia.com for Web Design worldairports.se 2018   terms of use